sensor_id;sensor_type;location;lat;lon;timestamp;pressure;altitude;pressure_sealevel;temperature;humidity
64066;BME280;50318;54.760;9.408;2023-01-05T00:01:09;99938.06;;;12.02;69.35
64066;BME280;50318;54.760;9.408;2023-01-05T00:03:36;99935.53;;;11.98;69.25
64066;BME280;50318;54.760;9.408;2023-01-05T00:06:10;99927.00;;;11.96;68.98
64066;BME280;50318;54.760;9.408;2023-01-05T00:08:38;99944.25;;;11.97;68.34
64066;BME280;50318;54.760;9.408;2023-01-05T00:11:12;99916.13;;;11.87;68.64
64066;BME280;50318;54.760;9.408;2023-01-05T00:13:39;99944.72;;;11.95;68.49
64066;BME280;50318;54.760;9.408;2023-01-05T00:16:13;99930.97;;;11.95;68.38
64066;BME280;50318;54.760;9.408;2023-01-05T00:18:39;99929.94;;;11.93;67.58
64066;BME280;50318;54.760;9.408;2023-01-05T00:21:14;99926.09;;;11.85;67.50
64066;BME280;50318;54.760;9.408;2023-01-05T00:23:43;99947.66;;;11.92;68.07
64066;BME280;50318;54.760;9.408;2023-01-05T00:26:09;99932.41;;;11.91;67.74
64066;BME280;50318;54.760;9.408;2023-01-05T00:28:36;99936.59;;;11.86;67.39
64066;BME280;50318;54.760;9.408;2023-01-05T00:31:02;99949.66;;;11.91;67.50
64066;BME280;50318;54.760;9.408;2023-01-05T00:33:28;99941.41;;;11.91;67.29
64066;BME280;50318;54.760;9.408;2023-01-05T00:35:54;99935.56;;;11.84;67.58
64066;BME280;50318;54.760;9.408;2023-01-05T00:38:20;99947.66;;;11.92;67.81
64066;BME280;50318;54.760;9.408;2023-01-05T00:40:48;99936.00;;;11.97;67.28
64066;BME280;50318;54.760;9.408;2023-01-05T00:43:14;99952.22;;;11.95;67.16
64066;BME280;50318;54.760;9.408;2023-01-05T00:45:40;99947.47;;;11.95;67.14
64066;BME280;50318;54.760;9.408;2023-01-05T00:48:06;99956.75;;;11.98;66.90
64066;BME280;50318;54.760;9.408;2023-01-05T00:50:33;99930.63;;;11.88;67.19
64066;BME280;50318;54.760;9.408;2023-01-05T00:53:00;99960.72;;;11.97;66.80
64066;BME280;50318;54.760;9.408;2023-01-05T00:55:26;99939.69;;;11.94;66.88
64066;BME280;50318;54.760;9.408;2023-01-05T00:57:53;99950.69;;;11.94;66.99
64066;BME280;50318;54.760;9.408;2023-01-05T01:00:19;99958.09;;;11.88;66.98
64066;BME280;50318;54.760;9.408;2023-01-05T01:02:46;99950.50;;;11.97;67.16
64066;BME280;50318;54.760;9.408;2023-01-05T01:05:12;99971.53;;;12.01;66.99
64066;BME280;50318;54.760;9.408;2023-01-05T01:07:42;99976.25;;;12.00;67.15
64066;BME280;50318;54.760;9.408;2023-01-05T01:10:09;99970.00;;;11.99;66.84
64066;BME280;50318;54.760;9.408;2023-01-05T01:12:35;99981.56;;;12.04;67.23
64066;BME280;50318;54.760;9.408;2023-01-05T01:15:02;99979.28;;;12.02;67.30
64066;BME280;50318;54.760;9.408;2023-01-05T01:17:31;99963.00;;;11.98;67.48
64066;BME280;50318;54.760;9.408;2023-01-05T01:19:57;99961.97;;;11.96;67.39
64066;BME280;50318;54.760;9.408;2023-01-05T01:22:24;99968.50;;;11.98;66.38
64066;BME280;50318;54.760;9.408;2023-01-05T01:24:50;99982.03;;;12.02;66.35
64066;BME280;50318;54.760;9.408;2023-01-05T01:27:17;99965.75;;;11.98;66.32
64066;BME280;50318;54.760;9.408;2023-01-05T01:29:43;99975.72;;;11.96;65.86
64066;BME280;50318;54.760;9.408;2023-01-05T01:32:09;99988.69;;;11.95;65.89
64066;BME280;50318;54.760;9.408;2023-01-05T01:34:35;99977.16;;;11.91;66.11
64066;BME280;50318;54.760;9.408;2023-01-05T01:37:02;99964.72;;;11.96;65.57
64066;BME280;50318;54.760;9.408;2023-01-05T01:39:33;99986.41;;;11.94;65.65
64066;BME280;50318;54.760;9.408;2023-01-05T01:42:05;99991.56;;;11.86;65.98
64066;BME280;50318;54.760;9.408;2023-01-05T01:47:24;99979.53;;;11.84;66.24
64066;BME280;50318;54.760;9.408;2023-01-05T01:49:53;100001.78;;;11.86;66.48
64066;BME280;50318;54.760;9.408;2023-01-05T01:52:21;100003.59;;;11.89;66.82
64066;BME280;50318;54.760;9.408;2023-01-05T01:54:50;99995.06;;;11.87;66.83
64066;BME280;50318;54.760;9.408;2023-01-05T01:57:16;99994.78;;;11.85;67.25
64066;BME280;50318;54.760;9.408;2023-01-05T01:59:43;100013.06;;;11.88;67.41
64066;BME280;50318;54.760;9.408;2023-01-05T02:02:10;100008.88;;;11.92;67.31
64066;BME280;50318;54.760;9.408;2023-01-05T02:04:37;100009.84;;;11.89;67.13
64066;BME280;50318;54.760;9.408;2023-01-05T02:07:06;100018.38;;;11.91;67.12
64066;BME280;50318;54.760;9.408;2023-01-05T02:09:35;100010.03;;;11.86;67.30
64066;BME280;50318;54.760;9.408;2023-01-05T02:12:22;100020.91;;;11.95;67.25
64066;BME280;50318;54.760;9.408;2023-01-05T02:26:44;100024.97;;;11.99;66.21
64066;BME280;50318;54.760;9.408;2023-01-05T02:29:27;100010.75;;;12.01;66.13
64066;BME280;50318;54.760;9.408;2023-01-05T02:35:18;100009.81;;;12.04;65.88
64066;BME280;50318;54.760;9.408;2023-01-05T02:37:58;100021.28;;;12.03;65.93
64066;BME280;50318;54.760;9.408;2023-01-05T02:40:33;100001.84;;;12.06;65.56
64066;BME280;50318;54.760;9.408;2023-01-05T02:43:04;100022.16;;;12.09;65.64
64066;BME280;50318;54.760;9.408;2023-01-05T02:45:31;100023.38;;;12.08;65.12
64066;BME280;50318;54.760;9.408;2023-01-05T02:47:59;100021.28;;;12.03;65.16
64066;BME280;50318;54.760;9.408;2023-01-05T02:53:12;100028.56;;;12.06;64.72
64066;BME280;50318;54.760;9.408;2023-01-05T02:55:55;100027.81;;;12.05;65.34
64066;BME280;50318;54.760;9.408;2023-01-05T02:58:36;100020.25;;;12.00;65.37
64066;BME280;50318;54.760;9.408;2023-01-05T03:01:10;100033.78;;;12.04;65.86
64066;BME280;50318;54.760;9.408;2023-01-05T03:03:43;100033.69;;;12.13;65.63
64066;BME280;50318;54.760;9.408;2023-01-05T03:06:16;100042.44;;;12.11;65.69
64066;BME280;50318;54.760;9.408;2023-01-05T03:08:50;100029.91;;;12.10;65.44
64066;BME280;50318;54.760;9.408;2023-01-05T03:11:18;100017.47;;;12.15;65.53
64066;BME280;50318;54.760;9.408;2023-01-05T03:13:51;100035.00;;;12.17;65.35
64066;BME280;50318;54.760;9.408;2023-01-05T03:16:24;100039.00;;;12.16;66.03
64066;BME280;50318;54.760;9.408;2023-01-05T03:18:54;100028.00;;;12.16;65.73
64066;BME280;50318;54.760;9.408;2023-01-05T03:21:41;100034.06;;;12.20;66.43
64066;BME280;50318;54.760;9.408;2023-01-05T03:24:29;100048.75;;;12.17;66.28
64066;BME280;50318;54.760;9.408;2023-01-05T03:27:17;100047.03;;;12.20;66.56
64066;BME280;50318;54.760;9.408;2023-01-05T03:30:04;100010.53;;;12.19;66.71
64066;BME280;50318;54.760;9.408;2023-01-05T03:32:58;100042.03;;;12.18;66.42
64066;BME280;50318;54.760;9.408;2023-01-05T03:35:49;100037.97;;;12.14;66.96
64066;BME280;50318;54.760;9.408;2023-01-05T03:38:28;100057.75;;;12.18;66.57
64066;BME280;50318;54.760;9.408;2023-01-05T03:40:59;100052.75;;;12.16;66.50
64066;BME280;50318;54.760;9.408;2023-01-05T03:43:26;100045.44;;;12.13;66.56
64066;BME280;50318;54.760;9.408;2023-01-05T03:45:54;100064.03;;;12.18;66.66
64066;BME280;50318;54.760;9.408;2023-01-05T03:48:26;100058.03;;;12.20;66.66
64066;BME280;50318;54.760;9.408;2023-01-05T03:50:52;100063.53;;;12.20;66.47
64066;BME280;50318;54.760;9.408;2023-01-05T03:53:20;100071.13;;;12.25;66.64
64066;BME280;50318;54.760;9.408;2023-01-05T03:55:47;100059.63;;;12.26;66.40
64066;BME280;50318;54.760;9.408;2023-01-05T03:58:14;100056.59;;;12.24;66.21
64066;BME280;50318;54.760;9.408;2023-01-05T04:00:44;100062.31;;;12.21;66.19
64066;BME280;50318;54.760;9.408;2023-01-05T04:03:12;100068.56;;;12.21;66.08
64066;BME280;50318;54.760;9.408;2023-01-05T04:05:38;100066.09;;;12.23;65.99
64066;BME280;50318;54.760;9.408;2023-01-05T04:08:05;100064.09;;;12.24;66.44
64066;BME280;50318;54.760;9.408;2023-01-05T04:10:34;100051.13;;;12.24;66.73
64066;BME280;50318;54.760;9.408;2023-01-05T04:13:01;100067.13;;;12.26;66.31
64066;BME280;50318;54.760;9.408;2023-01-05T04:15:27;100062.31;;;12.21;66.22
64066;BME280;50318;54.760;9.408;2023-01-05T04:17:54;100078.88;;;12.26;66.36
64066;BME280;50318;54.760;9.408;2023-01-05T04:20:21;100077.38;;;12.25;66.31
64066;BME280;50318;54.760;9.408;2023-01-05T04:22:47;100088.16;;;12.29;66.44
64066;BME280;50318;54.760;9.408;2023-01-05T04:25:15;100077.84;;;12.24;66.72
64066;BME280;50318;54.760;9.408;2023-01-05T04:27:43;100081.91;;;12.28;66.61
64066;BME280;50318;54.760;9.408;2023-01-05T04:30:09;100079.16;;;12.28;66.92
64066;BME280;50318;54.760;9.408;2023-01-05T04:32:36;100090.16;;;12.28;66.87
64066;BME280;50318;54.760;9.408;2023-01-05T04:35:03;100092.44;;;12.30;66.86
64066;BME280;50318;54.760;9.408;2023-01-05T04:37:32;100109.72;;;12.31;66.74
64066;BME280;50318;54.760;9.408;2023-01-05T04:39:59;100099.94;;;12.29;66.49
64066;BME280;50318;54.760;9.408;2023-01-05T04:42:25;100112.06;;;12.23;66.38
64066;BME280;50318;54.760;9.408;2023-01-05T04:44:54;100100.81;;;12.21;66.53
64066;BME280;50318;54.760;9.408;2023-01-05T04:47:20;100115.59;;;12.23;66.97
64066;BME280;50318;54.760;9.408;2023-01-05T04:49:49;100114.34;;;12.24;66.60
64066;BME280;50318;54.760;9.408;2023-01-05T04:52:16;100119.56;;;12.22;67.10
64066;BME280;50318;54.760;9.408;2023-01-05T04:54:43;100122.31;;;12.22;66.35
64066;BME280;50318;54.760;9.408;2023-01-05T04:57:09;100122.22;;;12.17;66.72
64066;BME280;50318;54.760;9.408;2023-01-05T04:59:38;100128.78;;;12.19;66.94
64066;BME280;50318;54.760;9.408;2023-01-05T05:02:04;100122.50;;;12.19;67.02
64066;BME280;50318;54.760;9.408;2023-01-05T05:04:32;100140.34;;;12.23;67.09
64066;BME280;50318;54.760;9.408;2023-01-05T05:06:59;100116.06;;;12.22;67.09
64066;BME280;50318;54.760;9.408;2023-01-05T05:09:29;100137.78;;;12.20;66.88
64066;BME280;50318;54.760;9.408;2023-01-05T05:11:55;100135.78;;;12.20;66.60
64066;BME280;50318;54.760;9.408;2023-01-05T05:14:23;100132.19;;;12.14;66.42
64066;BME280;50318;54.760;9.408;2023-01-05T05:16:49;100127.94;;;12.13;66.49
64066;BME280;50318;54.760;9.408;2023-01-05T05:19:15;100156.38;;;12.10;66.58
64066;BME280;50318;54.760;9.408;2023-01-05T05:21:42;100154.56;;;12.07;66.45
64066;BME280;50318;54.760;9.408;2023-01-05T05:24:10;100137.75;;;12.05;66.19
64066;BME280;50318;54.760;9.408;2023-01-05T05:26:40;100144.97;;;12.03;66.83
64066;BME280;50318;54.760;9.408;2023-01-05T05:29:06;100149.72;;;12.02;67.49
64066;BME280;50318;54.760;9.408;2023-01-05T05:31:32;100153.97;;;12.03;67.28
64066;BME280;50318;54.760;9.408;2023-01-05T05:33:58;100148.75;;;12.05;66.88
64066;BME280;50318;54.760;9.408;2023-01-05T05:36:25;100138.06;;;12.07;67.03
64066;BME280;50318;54.760;9.408;2023-01-05T05:38:51;100170.13;;;12.10;66.72
64066;BME280;50318;54.760;9.408;2023-01-05T05:41:17;100171.06;;;12.07;66.69
64066;BME280;50318;54.760;9.408;2023-01-05T05:43:43;100217.78;;;12.07;65.87
64066;BME280;50318;54.760;9.408;2023-01-05T05:46:09;100202.13;;;11.98;64.20
64066;BME280;50318;54.760;9.408;2023-01-05T05:48:36;100209.41;;;11.87;64.14
64066;BME280;50318;54.760;9.408;2023-01-05T05:51:02;100200.59;;;11.74;63.77
64066;BME280;50318;54.760;9.408;2023-01-05T05:53:28;100228.63;;;11.63;63.59
64066;BME280;50318;54.760;9.408;2023-01-05T05:55:54;100201.69;;;11.52;63.41
64066;BME280;50318;54.760;9.408;2023-01-05T05:58:20;100224.94;;;11.42;63.26
64066;BME280;50318;54.760;9.408;2023-01-05T06:00:47;100220.41;;;11.30;63.63
64066;BME280;50318;54.760;9.408;2023-01-05T06:03:13;100234.78;;;11.25;63.97
64066;BME280;50318;54.760;9.408;2023-01-05T06:05:39;100210.59;;;11.14;63.90
64066;BME280;50318;54.760;9.408;2023-01-05T06:08:05;100229.22;;;11.10;64.11
64066;BME280;50318;54.760;9.408;2023-01-05T06:10:31;100265.06;;;11.06;64.26
64066;BME280;50318;54.760;9.408;2023-01-05T06:12:58;100286.44;;;11.02;63.98
64066;BME280;50318;54.760;9.408;2023-01-05T06:15:24;100276.72;;;10.92;64.08
64066;BME280;50318;54.760;9.408;2023-01-05T06:17:50;100300.78;;;10.88;64.34
64066;BME280;50318;54.760;9.408;2023-01-05T06:20:16;100309.19;;;10.85;64.46
64066;BME280;50318;54.760;9.408;2023-01-05T06:22:43;100314.25;;;10.77;64.66
64066;BME280;50318;54.760;9.408;2023-01-05T06:25:09;100335.88;;;10.75;64.54
64066;BME280;50318;54.760;9.408;2023-01-05T06:27:36;100327.22;;;10.67;64.55
64066;BME280;50318;54.760;9.408;2023-01-05T06:30:03;100356.94;;;10.69;64.80
64066;BME280;50318;54.760;9.408;2023-01-05T06:32:30;100371.22;;;10.64;64.28
64066;BME280;50318;54.760;9.408;2023-01-05T06:34:56;100377.94;;;10.54;64.57
64066;BME280;50318;54.760;9.408;2023-01-05T06:37:22;100388.00;;;10.48;64.59
64066;BME280;50318;54.760;9.408;2023-01-05T06:39:48;100407.81;;;10.42;64.99
64066;BME280;50318;54.760;9.408;2023-01-05T06:42:14;100419.53;;;10.43;65.04
64066;BME280;50318;54.760;9.408;2023-01-05T06:44:41;100452.25;;;10.37;64.44
64066;BME280;50318;54.760;9.408;2023-01-05T06:47:07;100452.72;;;10.27;64.41
64066;BME280;50318;54.760;9.408;2023-01-05T06:49:33;100461.00;;;10.14;62.80
64066;BME280;50318;54.760;9.408;2023-01-05T06:51:59;100475.28;;;10.00;62.74
64066;BME280;50318;54.760;9.408;2023-01-05T06:54:25;100497.75;;;9.85;62.57
64066;BME280;50318;54.760;9.408;2023-01-05T06:56:51;100485.03;;;9.70;63.00
64066;BME280;50318;54.760;9.408;2023-01-05T06:59:18;100501.28;;;9.64;63.01
64066;BME280;50318;54.760;9.408;2023-01-05T07:01:44;100508.69;;;9.54;62.97
64066;BME280;50318;54.760;9.408;2023-01-05T07:04:10;100518.25;;;9.50;62.88
64066;BME280;50318;54.760;9.408;2023-01-05T07:06:36;100514.78;;;9.37;63.16
64066;BME280;50318;54.760;9.408;2023-01-05T07:09:02;100530.59;;;9.33;63.40
64066;BME280;50318;54.760;9.408;2023-01-05T07:11:29;100528.34;;;9.18;63.27
64066;BME280;50318;54.760;9.408;2023-01-05T07:13:55;100528.00;;;9.16;63.17
64066;BME280;50318;54.760;9.408;2023-01-05T07:16:21;100536.59;;;9.06;63.00
64066;BME280;50318;54.760;9.408;2023-01-05T07:18:47;100548.34;;;8.93;62.42
64066;BME280;50318;54.760;9.408;2023-01-05T07:21:13;100559.53;;;8.86;63.21
64066;BME280;50318;54.760;9.408;2023-01-05T07:23:40;100567.19;;;8.79;63.07
64066;BME280;50318;54.760;9.408;2023-01-05T07:26:07;100572.34;;;8.77;62.94
64066;BME280;50318;54.760;9.408;2023-01-05T07:28:34;100590.06;;;8.72;63.14
64066;BME280;50318;54.760;9.408;2023-01-05T07:31:01;100597.16;;;8.70;63.41
64066;BME280;50318;54.760;9.408;2023-01-05T07:33:27;100591.06;;;8.66;63.20
64066;BME280;50318;54.760;9.408;2023-01-05T07:35:53;100607.13;;;8.64;63.42
64066;BME280;50318;54.760;9.408;2023-01-05T07:38:20;100613.25;;;8.68;63.66
64066;BME280;50318;54.760;9.408;2023-01-05T07:40:46;100608.66;;;8.65;63.37
64066;BME280;50318;54.760;9.408;2023-01-05T07:43:12;100622.78;;;8.63;63.85
64066;BME280;50318;54.760;9.408;2023-01-05T07:45:38;100631.84;;;8.60;63.04
64066;BME280;50318;54.760;9.408;2023-01-05T07:48:05;100628.91;;;8.54;63.57
64066;BME280;50318;54.760;9.408;2023-01-05T07:50:31;100630.97;;;8.50;63.54
64066;BME280;50318;54.760;9.408;2023-01-05T07:52:57;100648.03;;;8.54;63.67
64066;BME280;50318;54.760;9.408;2023-01-05T07:55:24;100650.53;;;8.49;63.85
64066;BME280;50318;54.760;9.408;2023-01-05T07:57:50;100658.88;;;8.58;64.34
64066;BME280;50318;54.760;9.408;2023-01-05T08:00:16;100674.06;;;8.59;64.24
64066;BME280;50318;54.760;9.408;2023-01-05T08:02:43;100691.34;;;8.69;64.33
64066;BME280;50318;54.760;9.408;2023-01-05T08:05:09;100688.63;;;8.69;64.55
64066;BME280;50318;54.760;9.408;2023-01-05T08:07:35;100702.94;;;8.73;64.16
64066;BME280;50318;54.760;9.408;2023-01-05T08:10:02;100704.47;;;8.74;64.52
64066;BME280;50318;54.760;9.408;2023-01-05T08:12:29;100715.66;;;8.79;64.00
64066;BME280;50318;54.760;9.408;2023-01-05T08:14:55;100722.31;;;8.78;64.19
64066;BME280;50318;54.760;9.408;2023-01-05T08:17:21;100729.97;;;8.83;63.80
64066;BME280;50318;54.760;9.408;2023-01-05T08:19:47;100727.25;;;8.83;63.86
64066;BME280;50318;54.760;9.408;2023-01-05T08:22:13;100739.06;;;8.93;63.88
64066;BME280;50318;54.760;9.408;2023-01-05T08:24:40;100752.19;;;8.98;63.24
64066;BME280;50318;54.760;9.408;2023-01-05T08:27:06;100756.81;;;9.01;63.05
64066;BME280;50318;54.760;9.408;2023-01-05T08:29:32;100760.06;;;8.96;62.73
64066;BME280;50318;54.760;9.408;2023-01-05T08:31:58;100764.88;;;8.92;61.90
64066;BME280;50318;54.760;9.408;2023-01-05T08:34:25;100769.69;;;8.88;62.38
64066;BME280;50318;54.760;9.408;2023-01-05T08:36:51;100779.75;;;8.91;62.20
64066;BME280;50318;54.760;9.408;2023-01-05T08:39:17;100772.09;;;8.86;62.48
64066;BME280;50318;54.760;9.408;2023-01-05T08:41:43;100781.28;;;8.79;62.48
64066;BME280;50318;54.760;9.408;2023-01-05T08:44:11;100781.50;;;8.85;63.05
64066;BME280;50318;54.760;9.408;2023-01-05T08:46:38;100791.25;;;8.86;63.09
64066;BME280;50318;54.760;9.408;2023-01-05T08:49:07;100783.72;;;8.90;63.02
64066;BME280;50318;54.760;9.408;2023-01-05T08:51:34;100803.00;;;8.99;63.20
64066;BME280;50318;54.760;9.408;2023-01-05T08:54:00;100807.34;;;8.97;62.50
64066;BME280;50318;54.760;9.408;2023-01-05T08:56:27;100817.09;;;8.98;62.46
64066;BME280;50318;54.760;9.408;2023-01-05T08:58:53;100821.56;;;8.91;62.39
64066;BME280;50318;54.760;9.408;2023-01-05T09:01:20;100830.09;;;8.93;63.14
64066;BME280;50318;54.760;9.408;2023-01-05T09:03:47;100837.53;;;8.93;63.44
64066;BME280;50318;54.760;9.408;2023-01-05T09:06:13;100852.56;;;9.01;63.97
64066;BME280;50318;54.760;9.408;2023-01-05T09:08:41;100859.91;;;9.04;63.38
64066;BME280;50318;54.760;9.408;2023-01-05T09:11:10;100860.91;;;9.10;63.63
64066;BME280;50318;54.760;9.408;2023-01-05T09:13:36;100869.44;;;9.12;63.52
64066;BME280;50318;54.760;9.408;2023-01-05T09:16:05;100875.91;;;9.18;63.77
64066;BME280;50318;54.760;9.408;2023-01-05T09:18:31;100889.41;;;9.26;63.81
64066;BME280;50318;54.760;9.408;2023-01-05T09:20:58;100894.66;;;9.33;64.10
64066;BME280;50318;54.760;9.408;2023-01-05T09:23:42;100900.47;;;9.35;63.89
64066;BME280;50318;54.760;9.408;2023-01-05T09:26:10;100898.81;;;9.37;63.93
64066;BME280;50318;54.760;9.408;2023-01-05T09:28:37;100899.03;;;9.43;63.30
64066;BME280;50318;54.760;9.408;2023-01-05T09:31:19;100911.44;;;9.47;64.30
64066;BME280;50318;54.760;9.408;2023-01-05T09:33:46;100912.19;;;9.48;63.47
64066;BME280;50318;54.760;9.408;2023-01-05T09:36:15;100921.06;;;9.52;63.60
64066;BME280;50318;54.760;9.408;2023-01-05T09:38:42;100929.72;;;9.50;63.28
64066;BME280;50318;54.760;9.408;2023-01-05T09:41:54;100921.25;;;9.45;62.77
64066;BME280;50318;54.760;9.408;2023-01-05T09:46:55;100939.13;;;9.37;63.42
64066;BME280;50318;54.760;9.408;2023-01-05T09:49:23;100953.13;;;9.39;63.53
64066;BME280;50318;54.760;9.408;2023-01-05T09:52:01;100957.06;;;9.38;63.21
64066;BME280;50318;54.760;9.408;2023-01-05T09:54:31;100951.94;;;9.40;63.32
64066;BME280;50318;54.760;9.408;2023-01-05T09:56:58;100968.56;;;9.45;63.35
64066;BME280;50318;54.760;9.408;2023-01-05T09:59:31;100977.91;;;9.48;63.46
64066;BME280;50318;54.760;9.408;2023-01-05T10:02:02;100984.94;;;9.49;62.87
64066;BME280;50318;54.760;9.408;2023-01-05T10:04:31;100986.91;;;9.48;63.67
64066;BME280;50318;54.760;9.408;2023-01-05T10:07:02;100988.19;;;9.44;63.33
64066;BME280;50318;54.760;9.408;2023-01-05T10:09:34;100997.75;;;9.52;63.39
64066;BME280;50318;54.760;9.408;2023-01-05T10:14:43;101002.03;;;9.53;63.00
64066;BME280;50318;54.760;9.408;2023-01-05T10:17:17;101020.09;;;9.63;63.52
64066;BME280;50318;54.760;9.408;2023-01-05T10:19:51;101015.28;;;9.67;63.02
64066;BME280;50318;54.760;9.408;2023-01-05T10:27:30;101024.25;;;9.55;62.77
64066;BME280;50318;54.760;9.408;2023-01-05T10:40:38;101042.84;;;9.89;62.41
64066;BME280;50318;54.760;9.408;2023-01-05T10:45:53;101058.97;;;10.00;62.60
64066;BME280;50318;54.760;9.408;2023-01-05T10:48:27;101062.03;;;10.02;62.27
64066;BME280;50318;54.760;9.408;2023-01-05T10:50:56;101053.72;;;10.05;62.55
64066;BME280;50318;54.760;9.408;2023-01-05T10:53:26;101069.94;;;10.00;61.36
64066;BME280;50318;54.760;9.408;2023-01-05T10:55:58;101072.03;;;9.96;61.72
64066;BME280;50318;54.760;9.408;2023-01-05T10:58:28;101065.50;;;9.90;61.75
64066;BME280;50318;54.760;9.408;2023-01-05T11:01:00;101080.31;;;9.92;61.08
64066;BME280;50318;54.760;9.408;2023-01-05T11:03:40;101086.78;;;9.85;61.24
64066;BME280;50318;54.760;9.408;2023-01-05T11:06:07;101082.16;;;9.82;61.08
64066;BME280;50318;54.760;9.408;2023-01-05T11:08:43;101093.03;;;9.86;61.61
64066;BME280;50318;54.760;9.408;2023-01-05T11:11:11;101094.66;;;9.83;61.83
64066;BME280;50318;54.760;9.408;2023-01-05T11:13:46;101097.63;;;9.89;61.58
64066;BME280;50318;54.760;9.408;2023-01-05T11:16:18;101102.69;;;9.91;60.76
64066;BME280;50318;54.760;9.408;2023-01-05T11:18:51;101107.50;;;9.87;59.78
64066;BME280;50318;54.760;9.408;2023-01-05T11:21:20;101104.31;;;9.75;60.31
64066;BME280;50318;54.760;9.408;2023-01-05T11:23:54;101112.53;;;9.75;60.83
64066;BME280;50318;54.760;9.408;2023-01-05T11:26:25;101115.25;;;9.75;60.88
64066;BME280;50318;54.760;9.408;2023-01-05T11:31:36;101129.66;;;9.63;59.17
64066;BME280;50318;54.760;9.408;2023-01-05T11:34:07;101126.69;;;9.58;60.16
64066;BME280;50318;54.760;9.408;2023-01-05T11:36:38;101123.63;;;9.56;60.41
64066;BME280;50318;54.760;9.408;2023-01-05T11:39:05;101115.16;;;9.50;60.05
64066;BME280;50318;54.760;9.408;2023-01-05T11:41:42;101134.03;;;9.61;61.15
64066;BME280;50318;54.760;9.408;2023-01-05T11:44:19;101128.03;;;9.66;61.00
64066;BME280;50318;54.760;9.408;2023-01-05T11:46:47;101136.84;;;9.73;60.30
64066;BME280;50318;54.760;9.408;2023-01-05T11:49:18;101136.84;;;9.73;60.03
64066;BME280;50318;54.760;9.408;2023-01-05T11:51:44;101134.88;;;9.74;60.41
64066;BME280;50318;54.760;9.408;2023-01-05T11:54:34;101134.56;;;9.84;60.75
64066;BME280;50318;54.760;9.408;2023-01-05T11:57:18;101138.72;;;9.89;60.21
64066;BME280;50318;54.760;9.408;2023-01-05T11:59:45;101141.38;;;9.93;59.68
64066;BME280;50318;54.760;9.408;2023-01-05T12:02:40;101140.53;;;9.96;60.03
64066;BME280;50318;54.760;9.408;2023-01-05T12:05:20;101146.00;;;9.96;60.01
64066;BME280;50318;54.760;9.408;2023-01-05T12:07:57;101144.47;;;9.95;59.51
64066;BME280;50318;54.760;9.408;2023-01-05T12:10:45;101160.91;;;9.95;60.07
64066;BME280;50318;54.760;9.408;2023-01-05T12:15:54;101169.47;;;9.97;59.68
64066;BME280;50318;54.760;9.408;2023-01-05T12:21:24;101157.75;;;9.96;59.78
64066;BME280;50318;54.760;9.408;2023-01-05T12:32:36;101162.25;;;10.03;59.74
64066;BME280;50318;54.760;9.408;2023-01-05T12:38:18;101172.00;;;10.04;60.29
64066;BME280;50318;54.760;9.408;2023-01-05T12:47:05;101183.72;;;10.04;59.43
64066;BME280;50318;54.760;9.408;2023-01-05T12:49:41;101180.56;;;10.06;59.79
64066;BME280;50318;54.760;9.408;2023-01-05T12:52:22;101181.66;;;10.08;58.79
64066;BME280;50318;54.760;9.408;2023-01-05T12:58:04;101196.88;;;9.97;59.22
64066;BME280;50318;54.760;9.408;2023-01-05T13:00:36;101188.66;;;9.97;59.63
64066;BME280;50318;54.760;9.408;2023-01-05T13:03:10;101192.59;;;9.96;59.31
64066;BME280;50318;54.760;9.408;2023-01-05T13:05:44;101195.50;;;9.89;59.77
64066;BME280;50318;54.760;9.408;2023-01-05T13:08:28;101207.13;;;9.93;60.08
64066;BME280;50318;54.760;9.408;2023-01-05T13:11:03;101205.59;;;9.92;60.13
64066;BME280;50318;54.760;9.408;2023-01-05T13:13:43;101212.72;;;9.89;59.58
64066;BME280;50318;54.760;9.408;2023-01-05T13:16:29;101204.59;;;9.85;60.67
64066;BME280;50318;54.760;9.408;2023-01-05T13:21:32;101217.25;;;9.96;60.67
64066;BME280;50318;54.760;9.408;2023-01-05T13:24:04;101213.66;;;9.99;60.73
64066;BME280;50318;54.760;9.408;2023-01-05T13:26:31;101221.78;;;10.02;60.40
64066;BME280;50318;54.760;9.408;2023-01-05T13:28:57;101219.47;;;10.01;60.07
64066;BME280;50318;54.760;9.408;2023-01-05T13:40:19;101233.00;;;9.92;60.86
64066;BME280;50318;54.760;9.408;2023-01-05T13:53:23;101235.28;;;9.80;61.14
64066;BME280;50318;54.760;9.408;2023-01-05T13:55:56;101254.53;;;9.77;60.83
64066;BME280;50318;54.760;9.408;2023-01-05T13:58:39;101266.28;;;9.77;60.83
64066;BME280;50318;54.760;9.408;2023-01-05T14:01:13;101259.34;;;9.73;60.47
64066;BME280;50318;54.760;9.408;2023-01-05T14:03:47;101275.50;;;9.67;60.97
64066;BME280;50318;54.760;9.408;2023-01-05T14:06:24;101273.63;;;9.64;61.06
64066;BME280;50318;54.760;9.408;2023-01-05T14:09:02;101269.03;;;9.61;61.20
64066;BME280;50318;54.760;9.408;2023-01-05T14:11:29;101266.13;;;9.52;61.39
64066;BME280;50318;54.760;9.408;2023-01-05T14:14:04;101281.00;;;9.51;61.40
64066;BME280;50318;54.760;9.408;2023-01-05T14:19:25;101279.28;;;9.41;61.64
64066;BME280;50318;54.760;9.408;2023-01-05T14:27:07;101307.19;;;9.36;62.50
64066;BME280;50318;54.760;9.408;2023-01-05T14:32:26;101308.72;;;9.37;62.62
64066;BME280;50318;54.760;9.408;2023-01-05T14:34:55;101302.03;;;9.38;62.69
64066;BME280;50318;54.760;9.408;2023-01-05T14:40:20;101326.38;;;9.52;62.52
64066;BME280;50318;54.760;9.408;2023-01-05T14:42:49;101330.66;;;9.53;62.52
64066;BME280;50318;54.760;9.408;2023-01-05T14:45:34;101327.47;;;9.54;62.26
64066;BME280;50318;54.760;9.408;2023-01-05T14:48:06;101347.00;;;9.57;62.19
64066;BME280;50318;54.760;9.408;2023-01-05T14:53:46;101351.78;;;9.52;62.17
64066;BME280;50318;54.760;9.408;2023-01-05T14:56:14;101363.50;;;9.53;62.48
64066;BME280;50318;54.760;9.408;2023-01-05T15:01:32;101361.00;;;9.42;62.53
64066;BME280;50318;54.760;9.408;2023-01-05T15:04:14;101357.31;;;9.33;62.19